Time;durP1;ratioP1;P1;durP2;ratioP2;P2;SDS_P1;SDS_P2;PMS_P1;PMS_P2;Temp;Humidity;BMP_temperature;BMP_pressure;BME280_temperature;BME280_humidity;BME280_pressure;Samples;Min_cycle;Max_cycle;Signal;HPM_P1;HPM_P2
2023/06/15 00:01:04;;;;;;;6.75;5.20;;;;;;;10.62;100.00;92955.88;2532575;23;20013;-83
2023/06/15 00:02:15;;;;;;;9.25;5.32;;;;;;;10.60;100.00;92956.28;2533384;23;20006;-85
2023/06/15 00:03:19;;;;;;;5.50;5.05;;;;;;;10.54;100.00;92956.06;2533155;23;20084;-83
2023/06/15 00:04:26;;;;;;;7.05;5.00;;;;;;;10.52;100.00;92952.28;2543942;23;20039;-83
2023/06/15 00:05:32;;;;;;;6.03;5.25;;;;;;;10.50;100.00;92957.31;2544808;23;20476;-84
2023/06/15 00:06:40;;;;;;;8.93;5.28;;;;;;;10.50;100.00;92958.06;2544700;23;20062;-82
2023/06/15 00:07:43;;;;;;;7.45;5.55;;;;;;;10.53;100.00;92951.09;2532881;23;20085;-85
2023/06/15 00:08:46;;;;;;;7.50;5.55;;;;;;;10.48;100.00;92959.63;2544346;23;20539;-86
2023/06/15 00:09:50;;;;;;;7.45;5.50;;;;;;;10.48;100.00;92955.03;2543650;23;20011;-85
2023/06/15 00:10:53;;;;;;;7.00;5.47;;;;;;;10.47;100.00;92955.47;2520084;23;20014;-83
2023/06/15 00:12:03;;;;;;;5.90;5.30;;;;;;;10.47;100.00;92960.81;2532535;23;20009;-84
2023/06/15 00:13:07;;;;;;;9.30;5.65;;;;;;;10.47;100.00;92953.53;2533330;23;20005;-84
2023/06/15 00:14:09;;;;;;;6.60;5.38;;;;;;;10.47;100.00;92964.22;2532390;23;20460;-85
2023/06/15 00:15:27;;;;;;;6.68;5.22;;;;;;;10.48;100.00;92956.97;2545639;23;20032;-83
2023/06/15 00:16:32;;;;;;;6.10;5.50;;;;;;;10.42;100.00;92956.72;2545105;23;20497;-84
2023/06/15 00:17:37;;;;;;;6.30;5.70;;;;;;;10.49;100.00;92953.13;2544426;23;20010;-83
2023/06/15 00:18:48;;;;;;;6.43;5.30;;;;;;;10.34;100.00;92964.16;2544203;23;20043;-86
2023/06/15 00:19:50;;;;;;;5.55;5.05;;;;;;;10.32;100.00;92960.41;2533593;23;20014;-84
2023/06/15 00:20:56;;;;;;;8.80;5.80;;;;;;;10.38;100.00;92960.66;2519195;23;20469;-84
2023/06/15 00:22:04;;;;;;;6.82;5.75;;;;;;;10.36;100.00;92963.75;2521145;23;20013;-84
2023/06/15 00:23:13;;;;;;;7.45;5.70;;;;;;;10.46;100.00;92959.31;2521640;23;20008;-83
2023/06/15 00:24:23;;;;;;;7.50;6.13;;;;;;;10.43;100.00;92960.88;2522413;23;20434;-83
2023/06/15 00:25:30;;;;;;;6.95;5.32;;;;;;;10.40;100.00;92963.63;2535092;23;20076;-85
2023/06/15 00:26:39;;;;;;;6.38;5.32;;;;;;;10.51;100.00;92956.13;2532388;23;20009;-84
2023/06/15 00:27:45;;;;;;;7.60;5.97;;;;;;;10.50;100.00;92962.66;2533134;23;20460;-84
2023/06/15 00:28:55;;;;;;;6.00;5.40;;;;;;;10.48;100.00;92960.38;2521243;23;20059;-82
2023/06/15 00:30:04;;;;;;;6.78;5.97;;;;;;;10.52;100.00;92963.72;2522383;23;20029;-83
2023/06/15 00:31:11;;;;;;;6.82;5.53;;;;;;;10.48;100.00;92960.38;2534568;23;20009;-82
2023/06/15 00:32:15;;;;;;;8.60;5.75;;;;;;;10.55;100.00;92954.88;2544205;23;20084;-84
2023/06/15 00:33:22;;;;;;;8.23;6.20;;;;;;;10.56;100.00;92961.72;2531938;23;20006;-84
2023/06/15 00:34:28;;;;;;;6.40;5.50;;;;;;;10.53;100.00;92961.81;2521873;23;20449;-83
2023/06/15 00:35:34;;;;;;;9.68;5.53;;;;;;;10.52;100.00;92960.31;2521237;23;20006;-84
2023/06/15 00:36:42;;;;;;;7.10;5.55;;;;;;;10.46;100.00;92959.31;2544657;23;20099;-83
2023/06/15 00:37:46;;;;;;;5.95;5.20;;;;;;;10.44;100.00;92965.06;2555403;23;20005;-83
2023/06/15 00:38:50;;;;;;;8.18;5.53;;;;;;;10.41;100.00;92965.16;2543386;23;20429;-83
2023/06/15 00:39:57;;;;;;;7.10;5.60;;;;;;;10.47;100.00;92969.56;2543963;23;20068;-84
2023/06/15 00:41:05;;;;;;;7.38;5.45;;;;;;;10.40;100.00;92959.03;2557029;23;20008;-86
2023/06/15 00:42:13;;;;;;;12.25;5.88;;;;;;;10.46;100.00;92967.34;2555593;23;20011;-84
2023/06/15 00:43:22;;;;;;;6.70;5.90;;;;;;;10.47;100.00;92968.81;2557445;23;20011;-85
2023/06/15 00:44:31;;;;;;;6.18;5.28;;;;;;;10.40;100.00;92963.63;2566547;23;20462;-84
2023/06/15 00:45:35;;;;;;;7.47;5.57;;;;;;;10.46;100.00;92962.72;2543287;23;20048;-83
2023/06/15 00:46:41;;;;;;;8.70;5.80;;;;;;;10.44;100.00;92962.38;2520645;23;20007;-84
2023/06/15 00:47:48;;;;;;;6.22;5.07;;;;;;;10.45;100.00;92963.16;2532201;23;20412;-82
2023/06/15 00:48:57;;;;;;;6.38;5.32;;;;;;;10.48;100.00;92960.38;2533462;23;20468;-84
2023/06/15 00:50:09;;;;;;;6.95;5.90;;;;;;;10.44;100.00;92966.97;2532704;23;20010;-85
2023/06/15 00:51:19;;;;;;;5.90;5.30;;;;;;;10.41;100.00;92963.25;2535507;23;20077;-84
2023/06/15 00:52:28;;;;;;;;;;;;;;;10.43;100.00;92960.88;2545838;23;20310;-84
2023/06/15 00:53:37;;;;;;;5.53;4.93;;;;;;;10.52;100.00;92960.31;2544805;23;19913;-84
2023/06/15 00:54:49;;;;;;;6.28;4.85;;;;;;;10.44;100.00;92958.97;2532844;23;20006;-84
2023/06/15 00:55:55;;;;;;;5.97;5.47;;;;;;;10.36;100.00;92958.41;2535830;23;20037;-85
2023/06/15 00:57:05;;;;;;;6.18;5.57;;;;;;;10.28;100.00;92963.16;2532182;23;20009;-84
2023/06/15 00:58:13;;;;;;;5.30;4.80;;;;;;;10.31;100.00;92972.25;2522766;23;20002;-82
2023/06/15 00:59:19;;;;;;;8.40;5.70;;;;;;;10.29;100.00;92970.00;2533702;23;20016;-85
2023/06/15 01:00:28;;;;;;;7.05;5.45;;;;;;;10.30;100.00;92968.06;2544346;23;20006;-84
2023/06/15 01:01:37;;;;;;;6.63;4.93;;;;;;;10.31;100.00;92961.56;2544585;23;20190;-85
2023/06/15 01:02:48;;;;;;;5.50;5.00;;;;;;;10.31;100.00;92961.56;2532360;23;20010;-84
2023/06/15 01:04:01;;;;;;;5.82;5.15;;;;;;;10.28;100.00;92968.50;2523631;23;20310;-83
2023/06/15 01:05:12;;;;;;;6.13;5.63;;;;;;;10.26;100.00;92970.06;2523626;23;20394;-83
2023/06/15 01:06:19;;;;;;;6.38;5.38;;;;;;;10.20;100.00;92966.38;2523268;23;20090;-85
2023/06/15 01:07:29;;;;;;;6.05;5.45;;;;;;;10.19;100.00;92968.28;2521253;23;20085;-83
2023/06/15 01:08:34;;;;;;;6.30;5.70;;;;;;;10.00;100.00;92966.41;2522205;23;20089;-85
2023/06/15 01:09:45;;;;;;;7.53;5.68;;;;;;;10.04;100.00;92973.19;2532885;23;20412;-84
2023/06/15 01:10:56;;;;;;;6.15;5.55;;;;;;;10.09;100.00;92966.59;2555320;23;20001;-84
2023/06/15 01:12:11;;;;;;;5.53;5.03;;;;;;;9.98;100.00;92968.78;2533188;23;20002;-84
2023/06/15 01:13:24;;;;;;;9.18;5.68;;;;;;;9.98;100.00;92961.50;2536685;23;20002;-85
2023/06/15 01:14:31;;;;;;;7.50;5.30;;;;;;;9.99;100.00;92965.69;2545498;23;20028;-85
2023/06/15 01:15:41;;;;;;;6.75;5.18;;;;;;;9.95;100.00;92961.56;2543710;23;20013;-84
2023/06/15 01:16:52;;;;;;;7.70;5.55;;;;;;;10.00;100.00;92961.81;2544907;23;20032;-84
2023/06/15 01:18:06;;;;;;;6.07;5.28;;;;;;;9.99;100.00;92967.59;2532929;23;20014;-83
2023/06/15 01:19:37;;;;;;;7.82;5.53;;;;;;;9.90;100.00;92964.75;2535842;23;20405;-83
2023/06/15 01:20:48;;;;;;;7.85;5.75;;;;;;;9.78;100.00;92966.88;2561365;23;20012;-83
2023/06/15 01:21:52;;;;;;;6.32;5.63;;;;;;;9.77;100.00;92960.03;2555091;23;20514;-81
2023/06/15 01:23:10;;;;;;;6.45;5.85;;;;;;;9.71;100.00;92961.72;2531473;23;20072;-82
2023/06/15 01:24:32;;;;;;;6.55;5.65;;;;;;;9.76;100.00;92957.78;2546313;23;20013;-85
2023/06/15 01:25:45;;;;;;;7.00;5.93;;;;;;;9.66;100.00;92956.09;2554984;23;20032;-83
2023/06/15 01:26:57;;;;;;;9.40;5.78;;;;;;;9.72;100.00;92957.13;2533483;23;20092;-84
2023/06/15 01:28:05;;;;;;;6.47;5.38;;;;;;;9.71;100.00;92963.63;2533125;23;20088;-84
2023/06/15 01:29:16;;;;;;;6.55;5.50;;;;;;;9.63;100.00;92954.25;2532377;23;20002;-83
2023/06/15 01:30:23;;;;;;;5.95;5.35;;;;;;;9.56;100.00;92957.81;2533164;23;20013;-84
2023/06/15 01:31:31;;;;;;;6.85;5.63;;;;;;;9.52;100.00;92957.13;2533696;23;20005;-83
2023/06/15 01:32:33;;;;;;;6.47;5.60;;;;;;;9.52;100.00;92957.88;2532889;23;20006;-83
2023/06/15 01:33:45;;;;;;;6.70;5.60;;;;;;;9.54;100.00;92955.56;2531438;23;20006;-84
2023/06/15 01:34:49;;;;;;;6.07;5.47;;;;;;;9.55;100.00;92957.06;2545958;23;20104;-85
2023/06/15 01:35:50;;;;;;;6.30;5.70;;;;;;;9.55;100.00;92951.72;2555434;23;20008;-84
2023/06/15 01:36:51;;;;;;;6.18;5.53;;;;;;;9.47;100.00;92955.69;2543443;23;20088;-84
2023/06/15 01:37:52;;;;;;;8.77;6.13;;;;;;;9.39;100.00;92958.91;2531638;23;20449;-84
2023/06/15 01:38:56;;;;;;;9.02;5.68;;;;;;;9.37;100.00;92954.00;2530269;23;20018;-81
2023/06/15 01:39:57;;;;;;;7.90;5.68;;;;;;;9.45;100.00;92955.38;2543933;23;20010;-85
2023/06/15 01:40:59;;;;;;;10.13;5.93;;;;;;;9.32;100.00;92955.25;2543446;23;20318;-85
2023/06/15 01:42:01;;;;;;;6.47;5.75;;;;;;;9.36;100.00;92957.09;2531669;23;20089;-84
2023/06/15 01:43:05;;;;;;;8.13;5.45;;;;;;;9.37;100.00;92959.34;2532030;23;20480;-84
2023/06/15 01:44:06;;;;;;;8.05;5.47;;;;;;;9.32;100.00;92957.16;2520674;23;20034;-83
2023/06/15 01:45:09;;;;;;;7.63;5.88;;;;;;;9.34;100.00;92960.91;2531212;23;20006;-83
2023/06/15 01:46:10;;;;;;;7.00;6.03;;;;;;;9.46;100.00;92958.78;2543811;23;20332;-84
2023/06/15 01:47:11;;;;;;;6.35;5.30;;;;;;;9.38;100.00;92958.19;2543005;23;20424;-84
2023/06/15 01:48:13;;;;;;;10.43;6.47;;;;;;;9.36;100.00;92952.50;2531119;23;20005;-84
2023/06/15 01:49:14;;;;;;;7.20;6.00;;;;;;;9.30;100.00;92962.13;2531129;23;20034;-85
2023/06/15 01:50:16;;;;;;;6.60;6.03;;;;;;;9.25;100.00;92955.38;2531199;23;20002;-82
2023/06/15 01:51:21;;;;;;;7.75;6.15;;;;;;;9.20;100.00;92960.44;2555685;23;20440;-84
2023/06/15 01:52:22;;;;;;;7.30;6.45;;;;;;;9.26;100.00;92954.22;2543007;23;20001;-85
2023/06/15 01:53:24;;;;;;;6.40;5.47;;;;;;;9.26;100.00;92950.78;2531042;23;20006;-85
2023/06/15 01:54:25;;;;;;;6.18;5.65;;;;;;;9.18;100.00;92954.78;2555130;23;20035;-85
2023/06/15 01:55:27;;;;;;;6.82;5.60;;;;;;;9.17;100.00;92958.59;2542515;23;20005;-86
2023/06/15 01:56:28;;;;;;;8.30;5.75;;;;;;;9.26;100.00;92954.22;2531495;23;20009;-85
2023/06/15 01:57:35;;;;;;;8.18;6.18;;;;;;;9.20;100.00;92958.53;2519020;23;20337;-83
2023/06/15 01:58:37;;;;;;;6.63;5.93;;;;;;;9.23;100.00;92962.28;2521639;23;20351;-84
2023/06/15 01:59:40;;;;;;;6.63;5.88;;;;;;;9.16;100.00;92962.41;2531665;23;20089;-85
2023/06/15 02:00:46;;;;;;;8.23;6.47;;;;;;;9.17;100.00;92958.59;2530856;23;20029;-84
2023/06/15 02:01:48;;;;;;;6.72;6.13;;;;;;;9.07;100.00;92963.72;2520623;23;20186;-86
2023/06/15 02:02:50;;;;;;;7.43;6.70;;;;;;;9.16;100.00;92963.16;2543723;23;20010;-84
2023/06/15 02:03:54;;;;;;;9.27;6.25;;;;;;;9.06;100.00;92966.78;2555337;23;20009;-85
2023/06/15 02:04:55;;;;;;;6.32;5.72;;;;;;;9.06;100.00;92961.47;2531771;23;20092;-83
2023/06/15 02:05:56;;;;;;;7.93;6.30;;;;;;;9.07;100.00;92961.03;2518488;23;20002;-84
2023/06/15 02:06:57;;;;;;;10.30;5.90;;;;;;;9.08;100.00;92959.88;2530800;23;20006;-84
2023/06/15 02:07:58;;;;;;;7.03;6.35;;;;;;;9.09;100.00;92965.97;2543092;23;20318;-83
2023/06/15 02:09:00;;;;;;;6.82;6.10;;;;;;;9.07;100.00;92965.63;2530798;23;20006;-82
2023/06/15 02:10:03;;;;;;;9.02;6.28;;;;;;;9.03;100.00;92968.34;2531441;23;20020;-83
2023/06/15 02:11:05;;;;;;;7.78;5.95;;;;;;;9.10;100.00;92964.06;2518983;23;20015;-83
2023/06/15 02:12:06;;;;;;;7.85;5.90;;;;;;;9.00;100.00;92965.75;2531488;23;20029;-85
2023/06/15 02:13:10;;;;;;;6.40;5.80;;;;;;;8.95;100.00;92966.22;2543299;23;20452;-85
2023/06/15 02:14:11;;;;;;;7.15;5.82;;;;;;;8.92;100.00;92965.13;2520069;23;20382;-82
2023/06/15 02:15:14;;;;;;;7.28;5.90;;;;;;;8.88;100.00;92969.78;2530797;23;20041;-85
2023/06/15 02:16:15;;;;;;;6.70;6.10;;;;;;;8.91;100.00;92963.66;2530887;23;20352;-85
2023/06/15 02:17:17;;;;;;;6.28;5.68;;;;;;;8.94;100.00;92962.06;2530818;23;20089;-86
2023/06/15 02:18:18;;;;;;;13.90;6.47;;;;;;;8.96;100.00;92968.50;2519194;23;20013;-84
2023/06/15 02:19:22;;;;;;;6.72;6.00;;;;;;;8.93;100.00;92968.56;2518709;23;20065;-84
2023/06/15 02:20:24;;;;;;;8.30;6.32;;;;;;;8.95;100.00;92968.88;2520081;23;20101;-83
2023/06/15 02:21:25;;;;;;;7.97;6.15;;;;;;;8.95;100.00;92974.97;2518642;23;20425;-84
2023/06/15 02:22:27;;;;;;;10.73;6.53;;;;;;;8.92;100.00;92978.47;2531226;23;20002;-83
2023/06/15 02:23:28;;;;;;;6.95;6.30;;;;;;;8.87;100.00;92973.63;2543128;23;20005;-84
2023/06/15 02:24:29;;;;;;;6.47;5.82;;;;;;;8.89;100.00;92970.53;2555523;23;20534;-82
2023/06/15 02:25:31;;;;;;;7.43;6.07;;;;;;;8.92;100.00;92975.81;2542876;23;20017;-85
2023/06/15 02:26:32;;;;;;;8.68;6.00;;;;;;;8.93;100.00;92974.63;2531045;23;20005;-83
2023/06/15 02:27:33;;;;;;;7.97;6.07;;;;;;;8.87;100.00;92972.84;2542848;23;20013;-83
2023/06/15 02:28:36;;;;;;;6.40;5.78;;;;;;;8.88;100.00;92967.13;2555361;23;20088;-84
2023/06/15 02:29:38;;;;;;;7.20;6.55;;;;;;;8.81;100.00;92975.97;2542499;23;20456;-84
2023/06/15 02:30:40;;;;;;;6.75;6.07;;;;;;;8.82;100.00;92971.41;2518986;23;20086;-84
2023/06/15 02:31:42;;;;;;;7.40;6.40;;;;;;;8.90;100.00;92966.69;2519066;23;20002;-85
2023/06/15 02:32:43;;;;;;;6.50;5.90;;;;;;;8.95;100.00;92969.63;2531161;23;20017;-82
2023/06/15 02:33:45;;;;;;;7.90;6.13;;;;;;;8.89;100.00;92970.53;2530849;23;20013;-83
2023/06/15 02:34:48;;;;;;;7.38;5.82;;;;;;;8.91;100.00;92970.88;2531452;23;20006;-85
2023/06/15 02:35:50;;;;;;;8.05;5.93;;;;;;;8.81;100.00;92975.97;2543557;23;20439;-84
2023/06/15 02:36:56;;;;;;;6.60;6.00;;;;;;;8.85;100.00;92973.25;2543161;23;20005;-86
2023/06/15 02:37:57;;;;;;;8.77;6.40;;;;;;;8.86;100.00;92971.34;2533056;23;20421;-84
2023/06/15 02:39:02;;;;;;;6.95;6.25;;;;;;;8.84;100.00;92974.41;2542894;23;20060;-84
2023/06/15 02:40:04;;;;;;;6.65;5.75;;;;;;;8.85;100.00;92975.16;2531761;23;20010;-86
2023/06/15 02:41:05;;;;;;;7.38;5.88;;;;;;;8.80;100.00;92974.47;2519339;23;20478;-83
2023/06/15 02:42:10;;;;;;;7.55;6.10;;;;;;;8.70;100.00;92967.44;2531095;23;20006;-84
2023/06/15 02:43:11;;;;;;;8.30;6.78;;;;;;;8.75;100.00;92966.97;2531625;23;20101;-87
2023/06/15 02:44:11;;;;;;;9.70;6.43;;;;;;;8.81;100.00;92965.31;2530795;23;20002;-84
2023/06/15 02:45:13;;;;;;;8.90;6.50;;;;;;;8.82;100.00;92976.72;2531253;23;20053;-84
2023/06/15 02:46:14;;;;;;;7.13;6.03;;;;;;;8.80;100.00;92968.41;2542961;23;20013;-85
2023/06/15 02:47:24;;;;;;;7.05;6.15;;;;;;;8.78;100.00;92974.16;2543035;23;20005;-83
2023/06/15 02:48:30;;;;;;;6.90;6.30;;;;;;;8.77;100.00;92974.53;2544747;23;20001;-86
2023/06/15 02:49:39;;;;;;;6.80;5.95;;;;;;;8.83;100.00;92973.66;2531505;23;20002;-83
2023/06/15 02:50:46;;;;;;;8.30;6.15;;;;;;;8.78;100.00;92971.47;2521415;23;20014;-84
2023/06/15 02:51:56;;;;;;;6.90;6.18;;;;;;;8.82;100.00;92968.72;2533404;23;20017;-84
2023/06/15 02:53:01;;;;;;;8.25;6.28;;;;;;;8.75;100.00;92971.53;2544578;23;20002;-85
2023/06/15 02:54:10;;;;;;;6.65;5.95;;;;;;;8.74;100.00;92970.78;2543587;23;20481;-84
2023/06/15 02:55:17;;;;;;;7.15;6.10;;;;;;;8.67;100.00;92975.47;2556698;23;20452;-85
2023/06/15 02:56:29;;;;;;;6.85;6.15;;;;;;;8.70;100.00;92977.34;2543135;23;20005;-84
2023/06/15 02:57:36;;;;;;;6.22;5.60;;;;;;;8.68;100.00;92975.06;2523118;23;20006;-83
2023/06/15 02:58:42;;;;;;;6.65;6.00;;;;;;;8.66;100.00;92973.97;2520332;23;20525;-83
2023/06/15 02:59:50;;;;;;;6.38;5.78;;;;;;;8.59;100.00;92972.16;2532726;23;20006;-84
2023/06/15 03:00:57;;;;;;;7.00;6.00;;;;;;;8.70;100.00;92974.66;2531911;23;20062;-85
2023/06/15 03:02:08;;;;;;;8.15;5.93;;;;;;;8.67;100.00;92973.56;2531895;23;20453;-83
2023/06/15 03:03:22;;;;;;;7.82;6.25;;;;;;;8.64;100.00;92973.63;2522897;23;20394;-84
2023/06/15 03:04:32;;;;;;;7.65;6.20;;;;;;;8.55;100.00;92971.47;2535336;23;20017;-84
2023/06/15 03:05:40;;;;;;;6.60;5.97;;;;;;;8.55;100.00;92968.81;2544681;23;20040;-81
2023/06/15 03:06:49;;;;;;;11.10;6.85;;;;;;;8.46;100.00;92973.91;2555180;23;20061;-84
2023/06/15 03:07:58;;;;;;;7.13;6.00;;;;;;;8.55;100.00;92971.47;2554755;23;20027;-83
2023/06/15 03:09:07;;;;;;;6.72;5.65;;;;;;;8.60;100.00;92970.25;2544181;23;20714;-83
2023/06/15 03:10:16;;;;;;;6.43;5.53;;;;;;;8.61;100.00;92977.88;2532651;23;20581;-83
2023/06/15 03:11:22;;;;;;;7.50;6.07;;;;;;;8.61;100.00;92974.44;2533828;23;20006;-83
2023/06/15 03:12:31;;;;;;;7.25;6.55;;;;;;;8.47;100.00;92978.06;2544115;23;20002;-84
2023/06/15 03:13:40;;;;;;;7.63;6.40;;;;;;;8.53;100.00;92979.88;2532359;23;20086;-84
2023/06/15 03:14:50;;;;;;;8.68;6.15;;;;;;;8.43;100.00;92988.81;2544544;23;20001;-82
2023/06/15 03:16:00;;;;;;;8.85;6.63;;;;;;;8.56;100.00;92984.41;2555093;23;20087;-84
2023/06/15 03:17:09;;;;;;;7.22;6.50;;;;;;;8.41;100.00;92980.44;2544607;23;20001;-82
2023/06/15 03:18:16;;;;;;;7.05;6.25;;;;;;;8.42;100.00;92981.94;2544813;23;20009;-84
2023/06/15 03:19:19;;;;;;;7.63;6.20;;;;;;;8.38;100.00;92983.91;2543463;23;20009;-84
2023/06/15 03:20:23;;;;;;;7.60;6.47;;;;;;;8.33;100.00;92985.09;2530837;23;20034;-84
2023/06/15 03:21:29;;;;;;;8.75;6.53;;;;;;;8.35;100.00;92987.38;2531699;23;20006;-82
2023/06/15 03:22:36;;;;;;;11.18;6.25;;;;;;;8.38;100.00;92983.16;2532408;23;20025;-84
2023/06/15 03:23:42;;;;;;;8.05;6.82;;;;;;;8.44;100.00;92977.00;2544389;23;20468;-84
2023/06/15 03:24:49;;;;;;;8.07;6.53;;;;;;;8.36;100.00;92985.47;2544080;23;20344;-84
2023/06/15 03:25:54;;;;;;;8.38;6.78;;;;;;;8.33;100.00;92985.09;2531927;23;20441;-82
2023/06/15 03:27:06;;;;;;;9.02;6.55;;;;;;;8.30;100.00;92979.84;2520517;23;20442;-84
2023/06/15 03:28:12;;;;;;;8.48;6.40;;;;;;;8.29;100.00;92992.38;2535409;23;20006;-84
2023/06/15 03:29:19;;;;;;;6.82;6.15;;;;;;;8.36;100.00;92988.13;2531966;23;20026;-84
2023/06/15 03:30:30;;;;;;;7.15;6.45;;;;;;;8.39;100.00;92990.03;2531867;23;20009;-82
2023/06/15 03:31:43;;;;;;;7.95;6.85;;;;;;;8.31;100.00;92984.00;2522864;23;20224;-84
2023/06/15 03:32:53;;;;;;;7.50;6.65;;;;;;;8.25;100.00;92993.59;2523799;23;20321;-83
2023/06/15 03:34:04;;;;;;;7.22;6.47;;;;;;;8.29;100.00;92987.06;2533910;23;20005;-84
2023/06/15 03:35:14;;;;;;;9.60;6.55;;;;;;;8.41;100.00;92993.78;2544864;23;20012;-82
2023/06/15 03:36:29;;;;;;;7.05;6.35;;;;;;;8.46;100.00;92992.56;2544246;23;20062;-84
2023/06/15 03:37:39;;;;;;;12.13;6.35;;;;;;;8.48;100.00;92990.25;2545736;23;20005;-84
2023/06/15 03:38:42;;;;;;;;;;;;;;;8.38;100.00;92986.56;2533943;23;20666;-83
2023/06/15 03:39:50;;;;;;;11.35;6.38;;;;;;;8.39;100.00;92993.44;2520312;23;19913;-86
2023/06/15 03:40:57;;;;;;;7.60;6.80;;;;;;;8.49;100.00;92995.16;2521954;23;20512;-83
2023/06/15 03:42:05;;;;;;;8.30;6.70;;;;;;;8.44;100.00;92987.63;2533569;23;20334;-83
2023/06/15 03:43:16;;;;;;;7.40;6.65;;;;;;;8.51;100.00;92990.19;2545398;23;20013;-85
2023/06/15 03:44:23;;;;;;;8.15;6.50;;;;;;;8.50;100.00;92996.66;2533406;23;20041;-85
2023/06/15 03:45:33;;;;;;;7.38;6.60;;;;;;;8.49;100.00;92991.75;2520682;23;20434;-84
2023/06/15 03:46:37;;;;;;;11.63;6.80;;;;;;;8.52;100.00;92999.69;2534184;23;20014;-84
2023/06/15 03:47:45;;;;;;;7.95;6.55;;;;;;;8.56;100.00;92997.72;2544167;23;20065;-83
2023/06/15 03:48:53;;;;;;;7.82;6.57;;;;;;;8.54;100.00;93000.03;2545092;23;20356;-86
2023/06/15 03:50:01;;;;;;;10.57;6.68;;;;;;;8.50;100.00;93009.22;2532962;23;20001;-84
2023/06/15 03:51:05;;;;;;;9.30;7.10;;;;;;;8.52;100.00;93006.94;2532467;23;20519;-83
2023/06/15 03:52:13;;;;;;;10.73;7.32;;;;;;;8.50;100.00;93003.91;2532376;23;20425;-85
2023/06/15 03:53:17;;;;;;;7.47;6.65;;;;;;;8.48;100.00;93006.22;2533072;23;20469;-85
2023/06/15 03:54:25;;;;;;;7.57;6.72;;;;;;;8.53;100.00;93006.53;2531807;23;20349;-82
2023/06/15 03:55:30;;;;;;;11.13;7.53;;;;;;;8.49;100.00;93008.47;2534038;23;20495;-84
2023/06/15 03:56:37;;;;;;;9.52;7.40;;;;;;;8.53;100.00;93006.53;2531889;23;20062;-85
2023/06/15 03:57:44;;;;;;;8.88;7.55;;;;;;;8.57;100.00;92998.47;2533901;23;20363;-84
2023/06/15 03:58:52;;;;;;;8.38;6.90;;;;;;;8.54;100.00;93004.59;2544622;23;20012;-84
2023/06/15 04:00:00;;;;;;;10.52;6.90;;;;;;;8.57;100.00;93003.81;2544902;23;20439;-84
2023/06/15 04:01:12;;;;;;;10.13;7.22;;;;;;;8.58;100.00;93013.28;2545005;23;20009;-84
2023/06/15 04:02:16;;;;;;;9.05;7.55;;;;;;;8.60;100.00;93004.88;2545298;23;20014;-83
2023/06/15 04:03:21;;;;;;;8.57;7.53;;;;;;;8.67;100.00;93016.19;2555291;23;20428;-83
2023/06/15 04:04:27;;;;;;;7.90;6.55;;;;;;;8.62;100.00;93007.91;2532608;23;20073;-85
2023/06/15 04:05:34;;;;;;;8.82;6.47;;;;;;;8.61;100.00;93015.16;2556651;23;19997;-85
2023/06/15 04:06:47;;;;;;;9.70;7.10;;;;;;;8.58;100.00;93014.03;2543910;23;20046;-82
2023/06/15 04:07:56;;;;;;;11.77;7.20;;;;;;;8.65;100.00;93017.75;2523645;23;20093;-86
2023/06/15 04:09:05;;;;;;;12.95;6.65;;;;;;;8.72;100.00;93014.97;2522515;23;20011;-85
2023/06/15 04:10:12;;;;;;;8.77;7.20;;;;;;;8.74;100.00;93018.75;2522751;23;20035;-84
2023/06/15 04:11:25;;;;;;;10.55;7.55;;;;;;;8.76;100.00;93016.41;2521682;23;20410;-84
2023/06/15 04:12:32;;;;;;;11.35;7.53;;;;;;;8.80;100.00;93021.69;2523743;23;20006;-82
2023/06/15 04:13:35;;;;;;;12.30;8.30;;;;;;;8.83;100.00;93015.56;2533636;23;20006;-83
2023/06/15 04:14:45;;;;;;;14.80;8.07;;;;;;;8.83;100.00;93018.97;2543800;23;20009;-84
2023/06/15 04:15:57;;;;;;;9.13;6.43;;;;;;;8.95;100.00;93028.28;2545328;23;20009;-82
2023/06/15 04:17:05;;;;;;;8.48;7.13;;;;;;;8.93;100.00;93032.53;2533522;23;20076;-83
2023/06/15 04:18:08;;;;;;;10.20;7.20;;;;;;;9.01;100.00;93020.59;2533979;23;20006;-83
2023/06/15 04:19:13;;;;;;;8.13;7.30;;;;;;;9.06;100.00;93028.13;2543831;23;20477;-83
2023/06/15 04:20:21;;;;;;;8.90;7.88;;;;;;;9.04;100.00;93015.19;2544621;23;20368;-85
2023/06/15 04:21:26;;;;;;;8.55;7.35;;;;;;;8.99;100.00;93020.97;2545034;23;20017;-85
2023/06/15 04:22:33;;;;;;;10.02;7.60;;;;;;;9.03;100.00;93019.00;2544497;23;20009;-86
2023/06/15 04:23:43;;;;;;;8.95;7.10;;;;;;;9.07;100.00;93025.03;2532053;23;20072;-83
2023/06/15 04:24:47;;;;;;;9.05;7.32;;;;;;;9.14;100.00;93026.09;2534407;23;20014;-85
2023/06/15 04:26:00;;;;;;;8.85;7.70;;;;;;;9.12;100.00;93029.13;2543909;23;20429;-85
2023/06/15 04:27:06;;;;;;;9.18;7.13;;;;;;;9.16;100.00;93021.84;2533488;23;20492;-84
2023/06/15 04:28:16;;;;;;;8.38;7.38;;;;;;;9.24;100.00;93028.53;2533275;23;20006;-84
2023/06/15 04:29:28;;;;;;;11.55;8.00;;;;;;;9.24;100.00;93025.13;2544622;23;20009;-82
2023/06/15 04:30:32;;;;;;;9.90;7.10;;;;;;;9.29;100.00;93030.00;2533334;23;20010;-82
2023/06/15 04:31:39;;;;;;;10.02;8.15;;;;;;;9.29;100.00;93030.75;2520351;23;20013;-82
2023/06/15 04:32:44;;;;;;;10.30;7.35;;;;;;;9.39;100.00;93030.94;2521846;23;20089;-84
2023/06/15 04:33:58;;;;;;;8.10;7.30;;;;;;;9.39;100.00;93031.69;2532518;23;20006;-82
2023/06/15 04:35:04;;;;;;;8.38;7.47;;;;;;;9.49;100.00;93033.44;2555018;23;20020;-83
2023/06/15 04:36:13;;;;;;;9.65;7.85;;;;;;;9.52;100.00;93031.84;2524215;23;20104;-82
2023/06/15 04:37:19;;;;;;;9.07;7.88;;;;;;;9.62;100.00;93038.16;2515038;23;20010;-81
2023/06/15 04:38:26;;;;;;;9.18;7.80;;;;;;;9.62;100.00;93038.16;2517160;23;20046;-85
2023/06/15 04:39:30;;;;;;;11.02;8.18;;;;;;;9.71;100.00;93041.03;2529550;23;20010;-83
2023/06/15 04:40:33;;;;;;;10.65;7.47;;;;;;;9.68;100.00;93039.91;2537628;23;20092;-82
2023/06/15 04:41:39;;;;;;;11.35;8.93;;;;;;;9.74;100.00;93032.19;2550218;23;20043;-83
2023/06/15 04:42:44;;;;;;;13.82;8.32;;;;;;;9.79;100.00;93034.38;2552514;23;20096;-83
2023/06/15 04:43:46;;;;;;;12.05;9.13;;;;;;;9.84;100.00;93037.31;2541056;23;20013;-84
2023/06/15 04:44:48;;;;;;;17.55;9.20;;;;;;;9.90;100.00;93037.56;2539364;23;20017;-83
2023/06/15 04:45:51;;;;;;;14.93;9.20;;;;;;;9.88;100.00;93042.59;2552613;23;20068;-82
2023/06/15 04:46:52;;;;;;;14.88;8.85;;;;;;;9.98;100.00;93043.53;2541335;23;20093;-82
2023/06/15 04:47:53;;;;;;;16.13;9.23;;;;;;;9.99;100.00;93045.78;2527445;23;20002;-82
2023/06/15 04:48:56;;;;;;;14.57;9.70;;;;;;;10.07;100.00;93041.78;2527686;23;20692;-82
2023/06/15 04:49:57;;;;;;;15.13;9.18;;;;;;;10.11;100.00;93040.97;2527769;23;20366;-82
2023/06/15 04:50:59;;;;;;;11.10;9.30;;;;;;;10.11;100.00;93033.72;2516016;23;20006;-84
2023/06/15 04:52:00;;;;;;;15.07;9.00;;;;;;;10.08;100.00;93042.53;2540401;23;20467;-83
2023/06/15 04:53:01;;;;;;;17.35;8.77;;;;;;;10.08;100.00;93035.28;2539726;23;20096;-81
2023/06/15 04:54:02;;;;;;;13.30;9.27;;;;;;;10.14;100.00;93040.91;2526906;23;20414;-83
2023/06/15 04:55:04;;;;;;;13.10;9.30;;;;;;;10.20;100.00;93046.50;2515084;23;20010;-83
2023/06/15 04:56:05;;;;;;;13.45;9.27;;;;;;;10.19;100.00;93034.31;2541247;23;20580;-83
2023/06/15 04:57:08;;;;;;;16.42;9.93;;;;;;;10.23;100.00;93038.41;2553544;23;20036;-83
2023/06/15 04:58:09;;;;;;;16.27;9.77;;;;;;;10.27;100.00;93035.69;2529087;23;20020;-84
2023/06/15 04:59:10;;;;;;;16.13;9.57;;;;;;;10.28;100.00;93035.28;2528499;23;20634;-84
2023/06/15 05:00:13;;;;;;;16.23;9.82;;;;;;;10.29;100.00;93033.34;2528911;23;20010;-84
2023/06/15 05:01:15;;;;;;;12.82;9.82;;;;;;;10.30;100.00;93032.19;2529640;23;20016;-85
2023/06/15 05:02:16;;;;;;;15.60;10.15;;;;;;;10.32;100.00;93035.22;2541218;23;20005;-84
2023/06/15 05:03:17;;;;;;;10.30;9.20;;;;;;;10.35;100.00;93037.03;2540829;23;20554;-85
2023/06/15 05:04:22;;;;;;;15.77;10.00;;;;;;;10.37;100.00;93039.31;2528870;23;20002;-81
2023/06/15 05:05:24;;;;;;;18.13;10.10;;;;;;;10.37;100.00;93039.31;2542367;23;20063;-84
2023/06/15 05:06:26;;;;;;;15.15;10.43;;;;;;;10.40;100.00;93033.84;2541587;23;20014;-83
2023/06/15 05:07:27;;;;;;;17.63;10.07;;;;;;;10.42;100.00;93036.13;2541309;23;20436;-83
2023/06/15 05:08:28;;;;;;;15.80;9.85;;;;;;;10.47;100.00;93035.63;2529837;23;20010;-83
2023/06/15 05:09:29;;;;;;;13.57;9.57;;;;;;;10.50;100.00;93035.56;2541992;23;20471;-84